sensor_id;sensor_type;location;lat;lon;timestamp;temperature;humidity
26336;DHT22;14047;50.936;4.654;2024-02-15T00:00:15;15.10;99.90
26336;DHT22;14047;50.936;4.654;2024-02-15T00:02:43;15.00;99.90
26336;DHT22;14047;50.936;4.654;2024-02-15T00:05:11;15.10;99.90
26336;DHT22;14047;50.936;4.654;2024-02-15T00:07:37;15.10;99.90
26336;DHT22;14047;50.936;4.654;2024-02-15T00:10:04;15.10;99.90
26336;DHT22;14047;50.936;4.654;2024-02-15T00:12:30;15.10;99.90
26336;DHT22;14047;50.936;4.654;2024-02-15T00:14:56;15.20;99.90
26336;DHT22;14047;50.936;4.654;2024-02-15T00:17:34;15.20;99.90
26336;DHT22;14047;50.936;4.654;2024-02-15T00:20:03;15.20;99.90
26336;DHT22;14047;50.936;4.654;2024-02-15T00:22:36;15.20;99.90
26336;DHT22;14047;50.936;4.654;2024-02-15T00:25:03;15.20;99.90
26336;DHT22;14047;50.936;4.654;2024-02-15T00:27:30;15.20;99.90
26336;DHT22;14047;50.936;4.654;2024-02-15T00:29:58;15.20;99.90
26336;DHT22;14047;50.936;4.654;2024-02-15T00:32:24;15.10;99.90
26336;DHT22;14047;50.936;4.654;2024-02-15T00:34:50;15.10;99.90
26336;DHT22;14047;50.936;4.654;2024-02-15T00:37:16;15.20;99.90
26336;DHT22;14047;50.936;4.654;2024-02-15T00:39:42;15.20;99.90
26336;DHT22;14047;50.936;4.654;2024-02-15T00:42:08;15.20;99.90
26336;DHT22;14047;50.936;4.654;2024-02-15T00:44:35;15.20;99.90
26336;DHT22;14047;50.936;4.654;2024-02-15T00:47:01;15.20;99.90
26336;DHT22;14047;50.936;4.654;2024-02-15T00:49:27;15.20;99.90
26336;DHT22;14047;50.936;4.654;2024-02-15T00:51:53;15.20;99.90
26336;DHT22;14047;50.936;4.654;2024-02-15T00:54:19;15.20;99.90
26336;DHT22;14047;50.936;4.654;2024-02-15T00:56:45;15.20;99.90
26336;DHT22;14047;50.936;4.654;2024-02-15T00:59:11;15.30;99.90
26336;DHT22;14047;50.936;4.654;2024-02-15T01:01:37;15.20;99.90
26336;DHT22;14047;50.936;4.654;2024-02-15T01:04:04;15.20;99.90
26336;DHT22;14047;50.936;4.654;2024-02-15T01:06:30;15.20;99.90
26336;DHT22;14047;50.936;4.654;2024-02-15T01:08:56;15.20;99.90
26336;DHT22;14047;50.936;4.654;2024-02-15T01:11:23;15.20;99.90
26336;DHT22;14047;50.936;4.654;2024-02-15T01:13:50;15.20;99.90
26336;DHT22;14047;50.936;4.654;2024-02-15T01:16:16;15.20;99.90
26336;DHT22;14047;50.936;4.654;2024-02-15T01:18:42;15.20;99.90
26336;DHT22;14047;50.936;4.654;2024-02-15T01:21:08;15.20;99.90
26336;DHT22;14047;50.936;4.654;2024-02-15T01:23:37;15.20;99.90
26336;DHT22;14047;50.936;4.654;2024-02-15T01:26:03;15.10;99.90
26336;DHT22;14047;50.936;4.654;2024-02-15T01:28:29;15.10;99.90
26336;DHT22;14047;50.936;4.654;2024-02-15T01:30:55;15.20;99.90
26336;DHT22;14047;50.936;4.654;2024-02-15T01:33:20;15.20;99.90
26336;DHT22;14047;50.936;4.654;2024-02-15T01:35:46;15.20;99.90
26336;DHT22;14047;50.936;4.654;2024-02-15T01:38:12;15.10;99.90
26336;DHT22;14047;50.936;4.654;2024-02-15T01:40:38;15.00;99.90
26336;DHT22;14047;50.936;4.654;2024-02-15T01:43:05;15.10;99.90
26336;DHT22;14047;50.936;4.654;2024-02-15T01:45:31;15.10;99.90
26336;DHT22;14047;50.936;4.654;2024-02-15T01:47:57;15.10;99.90
26336;DHT22;14047;50.936;4.654;2024-02-15T01:50:24;15.10;99.90
26336;DHT22;14047;50.936;4.654;2024-02-15T01:52:52;15.00;99.90
26336;DHT22;14047;50.936;4.654;2024-02-15T01:55:21;15.10;99.90
26336;DHT22;14047;50.936;4.654;2024-02-15T01:57:48;15.00;99.90
26336;DHT22;14047;50.936;4.654;2024-02-15T02:00:17;15.00;99.90
26336;DHT22;14047;50.936;4.654;2024-02-15T02:02:48;14.90;99.90
26336;DHT22;14047;50.936;4.654;2024-02-15T02:05:14;14.90;99.90
26336;DHT22;14047;50.936;4.654;2024-02-15T02:07:40;14.90;99.90
26336;DHT22;14047;50.936;4.654;2024-02-15T02:10:07;14.90;99.90
26336;DHT22;14047;50.936;4.654;2024-02-15T02:12:37;14.90;99.90
26336;DHT22;14047;50.936;4.654;2024-02-15T02:15:06;14.90;99.90
26336;DHT22;14047;50.936;4.654;2024-02-15T02:17:32;14.90;99.90
26336;DHT22;14047;50.936;4.654;2024-02-15T02:19:59;14.90;99.90
26336;DHT22;14047;50.936;4.654;2024-02-15T02:22:25;14.90;99.90
26336;DHT22;14047;50.936;4.654;2024-02-15T02:25:05;14.70;99.90
26336;DHT22;14047;50.936;4.654;2024-02-15T02:27:35;14.60;99.90
26336;DHT22;14047;50.936;4.654;2024-02-15T02:30:11;14.70;99.90
26336;DHT22;14047;50.936;4.654;2024-02-15T02:32:43;14.70;99.90
26336;DHT22;14047;50.936;4.654;2024-02-15T02:35:09;14.60;99.90
26336;DHT22;14047;50.936;4.654;2024-02-15T02:37:39;14.60;99.90
26336;DHT22;14047;50.936;4.654;2024-02-15T02:40:09;14.60;99.90
26336;DHT22;14047;50.936;4.654;2024-02-15T02:42:52;14.80;99.90
26336;DHT22;14047;50.936;4.654;2024-02-15T02:45:19;14.90;99.90
26336;DHT22;14047;50.936;4.654;2024-02-15T02:47:51;15.00;99.90
26336;DHT22;14047;50.936;4.654;2024-02-15T02:50:18;15.00;99.90
26336;DHT22;14047;50.936;4.654;2024-02-15T02:52:44;15.10;99.90
26336;DHT22;14047;50.936;4.654;2024-02-15T02:55:10;15.00;99.90
26336;DHT22;14047;50.936;4.654;2024-02-15T02:57:37;14.80;99.90
26336;DHT22;14047;50.936;4.654;2024-02-15T03:00:08;14.80;99.90
26336;DHT22;14047;50.936;4.654;2024-02-15T03:02:42;14.80;99.90
26336;DHT22;14047;50.936;4.654;2024-02-15T03:05:11;14.80;99.90
26336;DHT22;14047;50.936;4.654;2024-02-15T03:07:39;14.90;99.90
26336;DHT22;14047;50.936;4.654;2024-02-15T03:10:08;15.00;99.90
26336;DHT22;14047;50.936;4.654;2024-02-15T03:12:36;15.00;99.90
26336;DHT22;14047;50.936;4.654;2024-02-15T03:15:03;15.10;99.90
26336;DHT22;14047;50.936;4.654;2024-02-15T03:17:29;15.10;99.90
26336;DHT22;14047;50.936;4.654;2024-02-15T03:20:00;15.20;99.90
26336;DHT22;14047;50.936;4.654;2024-02-15T03:22:28;15.30;99.90
26336;DHT22;14047;50.936;4.654;2024-02-15T03:24:55;15.20;99.90
26336;DHT22;14047;50.936;4.654;2024-02-15T03:27:20;15.20;99.90
26336;DHT22;14047;50.936;4.654;2024-02-15T03:29:49;15.30;99.90
26336;DHT22;14047;50.936;4.654;2024-02-15T03:32:15;15.20;99.90
26336;DHT22;14047;50.936;4.654;2024-02-15T03:34:42;15.20;99.90
26336;DHT22;14047;50.936;4.654;2024-02-15T03:37:08;15.10;99.90
26336;DHT22;14047;50.936;4.654;2024-02-15T03:39:35;15.10;99.90
26336;DHT22;14047;50.936;4.654;2024-02-15T03:42:01;14.90;99.90
26336;DHT22;14047;50.936;4.654;2024-02-15T03:44:27;14.90;99.90
26336;DHT22;14047;50.936;4.654;2024-02-15T03:46:53;15.00;99.90
26336;DHT22;14047;50.936;4.654;2024-02-15T03:49:19;15.00;99.90
26336;DHT22;14047;50.936;4.654;2024-02-15T03:51:46;15.00;99.90
26336;DHT22;14047;50.936;4.654;2024-02-15T03:54:12;14.90;99.90
26336;DHT22;14047;50.936;4.654;2024-02-15T03:56:50;14.90;99.90
26336;DHT22;14047;50.936;4.654;2024-02-15T03:59:20;14.80;99.90
26336;DHT22;14047;50.936;4.654;2024-02-15T04:01:53;14.90;99.90
26336;DHT22;14047;50.936;4.654;2024-02-15T04:04:20;14.90;99.90
26336;DHT22;14047;50.936;4.654;2024-02-15T04:06:50;15.00;99.90
26336;DHT22;14047;50.936;4.654;2024-02-15T04:09:17;15.00;99.90
26336;DHT22;14047;50.936;4.654;2024-02-15T04:11:47;15.10;99.90
26336;DHT22;14047;50.936;4.654;2024-02-15T04:14:16;15.20;99.90
26336;DHT22;14047;50.936;4.654;2024-02-15T04:16:47;15.20;99.90
26336;DHT22;14047;50.936;4.654;2024-02-15T04:19:13;15.20;99.90
26336;DHT22;14047;50.936;4.654;2024-02-15T04:21:39;15.20;99.90
26336;DHT22;14047;50.936;4.654;2024-02-15T04:24:06;15.20;99.90
26336;DHT22;14047;50.936;4.654;2024-02-15T04:26:32;15.10;99.90
26336;DHT22;14047;50.936;4.654;2024-02-15T04:28:59;15.20;99.90
26336;DHT22;14047;50.936;4.654;2024-02-15T04:31:25;15.10;99.90
26336;DHT22;14047;50.936;4.654;2024-02-15T04:33:55;15.10;99.90
26336;DHT22;14047;50.936;4.654;2024-02-15T04:36:22;15.10;99.90
26336;DHT22;14047;50.936;4.654;2024-02-15T04:38:51;15.00;99.90
26336;DHT22;14047;50.936;4.654;2024-02-15T04:41:18;15.00;99.90
26336;DHT22;14047;50.936;4.654;2024-02-15T04:43:49;15.00;99.90
26336;DHT22;14047;50.936;4.654;2024-02-15T04:46:16;15.00;99.90
26336;DHT22;14047;50.936;4.654;2024-02-15T04:48:42;15.00;99.90
26336;DHT22;14047;50.936;4.654;2024-02-15T04:51:09;14.90;99.90
26336;DHT22;14047;50.936;4.654;2024-02-15T04:53:38;14.70;99.90
26336;DHT22;14047;50.936;4.654;2024-02-15T04:56:05;14.70;99.90
26336;DHT22;14047;50.936;4.654;2024-02-15T04:58:42;14.60;99.90
26336;DHT22;14047;50.936;4.654;2024-02-15T05:01:13;14.40;99.90
26336;DHT22;14047;50.936;4.654;2024-02-15T05:03:39;14.20;99.90
26336;DHT22;14047;50.936;4.654;2024-02-15T05:06:05;14.20;99.90
26336;DHT22;14047;50.936;4.654;2024-02-15T05:08:31;14.30;99.90
26336;DHT22;14047;50.936;4.654;2024-02-15T05:10:57;14.40;99.90
26336;DHT22;14047;50.936;4.654;2024-02-15T05:13:26;14.40;99.90
26336;DHT22;14047;50.936;4.654;2024-02-15T05:15:52;14.50;99.90
26336;DHT22;14047;50.936;4.654;2024-02-15T05:18:18;14.60;99.90
26336;DHT22;14047;50.936;4.654;2024-02-15T05:20:44;14.50;99.90
26336;DHT22;14047;50.936;4.654;2024-02-15T05:23:10;14.50;99.90
26336;DHT22;14047;50.936;4.654;2024-02-15T05:25:37;14.60;99.90
26336;DHT22;14047;50.936;4.654;2024-02-15T05:28:03;14.60;99.90
26336;DHT22;14047;50.936;4.654;2024-02-15T05:30:31;14.70;99.90
26336;DHT22;14047;50.936;4.654;2024-02-15T05:32:59;14.70;99.90
26336;DHT22;14047;50.936;4.654;2024-02-15T05:35:26;14.80;99.90
26336;DHT22;14047;50.936;4.654;2024-02-15T05:37:52;14.80;99.90
26336;DHT22;14047;50.936;4.654;2024-02-15T05:40:18;14.80;99.90
26336;DHT22;14047;50.936;4.654;2024-02-15T05:42:45;14.90;99.90
26336;DHT22;14047;50.936;4.654;2024-02-15T05:45:28;14.90;99.90
26336;DHT22;14047;50.936;4.654;2024-02-15T05:47:58;14.90;99.90
26336;DHT22;14047;50.936;4.654;2024-02-15T05:50:25;14.90;99.90
26336;DHT22;14047;50.936;4.654;2024-02-15T05:52:53;14.80;99.90
26336;DHT22;14047;50.936;4.654;2024-02-15T05:55:20;14.80;99.90
26336;DHT22;14047;50.936;4.654;2024-02-15T05:57:46;14.90;99.90
26336;DHT22;14047;50.936;4.654;2024-02-15T06:00:12;14.90;99.90
26336;DHT22;14047;50.936;4.654;2024-02-15T06:02:40;14.80;99.90
26336;DHT22;14047;50.936;4.654;2024-02-15T06:05:06;14.90;99.90
26336;DHT22;14047;50.936;4.654;2024-02-15T06:07:32;14.90;99.90
26336;DHT22;14047;50.936;4.654;2024-02-15T06:09:59;15.00;99.90
26336;DHT22;14047;50.936;4.654;2024-02-15T06:12:29;15.00;99.90
26336;DHT22;14047;50.936;4.654;2024-02-15T06:14:55;15.00;99.90
26336;DHT22;14047;50.936;4.654;2024-02-15T06:17:21;14.90;99.90
26336;DHT22;14047;50.936;4.654;2024-02-15T06:19:47;14.90;99.90
26336;DHT22;14047;50.936;4.654;2024-02-15T06:22:13;14.90;99.90
26336;DHT22;14047;50.936;4.654;2024-02-15T06:24:40;14.90;99.90
26336;DHT22;14047;50.936;4.654;2024-02-15T06:27:07;14.90;99.90
26336;DHT22;14047;50.936;4.654;2024-02-15T06:29:33;14.80;99.90
26336;DHT22;14047;50.936;4.654;2024-02-15T06:32:25;14.90;99.90
26336;DHT22;14047;50.936;4.654;2024-02-15T06:35:10;14.70;99.90
26336;DHT22;14047;50.936;4.654;2024-02-15T06:37:54;14.80;99.90
26336;DHT22;14047;50.936;4.654;2024-02-15T06:40:38;14.70;99.90
26336;DHT22;14047;50.936;4.654;2024-02-15T06:43:04;14.80;99.90
26336;DHT22;14047;50.936;4.654;2024-02-15T06:45:30;14.80;99.90
26336;DHT22;14047;50.936;4.654;2024-02-15T06:47:57;14.90;99.90
26336;DHT22;14047;50.936;4.654;2024-02-15T06:50:24;14.90;99.90
26336;DHT22;14047;50.936;4.654;2024-02-15T06:52:51;14.90;99.90
26336;DHT22;14047;50.936;4.654;2024-02-15T06:55:17;14.90;99.90
26336;DHT22;14047;50.936;4.654;2024-02-15T06:57:45;14.90;99.90
26336;DHT22;14047;50.936;4.654;2024-02-15T07:00:12;14.90;99.90
26336;DHT22;14047;50.936;4.654;2024-02-15T07:02:41;14.90;99.90
26336;DHT22;14047;50.936;4.654;2024-02-15T07:05:07;14.80;99.90
26336;DHT22;14047;50.936;4.654;2024-02-15T07:07:33;14.70;99.90
26336;DHT22;14047;50.936;4.654;2024-02-15T07:10:00;14.70;99.90
26336;DHT22;14047;50.936;4.654;2024-02-15T07:12:28;14.70;99.90
26336;DHT22;14047;50.936;4.654;2024-02-15T07:14:55;14.60;99.90
26336;DHT22;14047;50.936;4.654;2024-02-15T07:17:21;14.60;99.90
26336;DHT22;14047;50.936;4.654;2024-02-15T07:19:47;14.60;99.90
26336;DHT22;14047;50.936;4.654;2024-02-15T07:22:15;14.60;99.90
26336;DHT22;14047;50.936;4.654;2024-02-15T07:24:42;14.60;99.90
26336;DHT22;14047;50.936;4.654;2024-02-15T07:27:08;14.70;99.90
26336;DHT22;14047;50.936;4.654;2024-02-15T07:29:35;14.60;99.90
26336;DHT22;14047;50.936;4.654;2024-02-15T07:32:04;14.60;99.90
26336;DHT22;14047;50.936;4.654;2024-02-15T07:34:33;14.60;99.90
26336;DHT22;14047;50.936;4.654;2024-02-15T07:37:01;14.60;99.90
26336;DHT22;14047;50.936;4.654;2024-02-15T07:39:27;14.70;99.90
26336;DHT22;14047;50.936;4.654;2024-02-15T07:41:54;14.70;99.90
26336;DHT22;14047;50.936;4.654;2024-02-15T07:44:20;14.70;99.90
26336;DHT22;14047;50.936;4.654;2024-02-15T07:46:47;14.70;99.90
26336;DHT22;14047;50.936;4.654;2024-02-15T07:49:14;14.70;99.90
26336;DHT22;14047;50.936;4.654;2024-02-15T07:51:40;14.80;99.90
26336;DHT22;14047;50.936;4.654;2024-02-15T07:54:06;14.80;99.90
26336;DHT22;14047;50.936;4.654;2024-02-15T07:56:32;14.90;99.90
26336;DHT22;14047;50.936;4.654;2024-02-15T07:58:58;14.80;99.90
26336;DHT22;14047;50.936;4.654;2024-02-15T08:01:24;14.80;99.90
26336;DHT22;14047;50.936;4.654;2024-02-15T08:03:50;15.00;99.90
26336;DHT22;14047;50.936;4.654;2024-02-15T08:06:17;15.10;99.90
26336;DHT22;14047;50.936;4.654;2024-02-15T08:08:43;15.10;99.90
26336;DHT22;14047;50.936;4.654;2024-02-15T08:11:15;15.20;99.90
26336;DHT22;14047;50.936;4.654;2024-02-15T08:13:50;15.20;99.90
26336;DHT22;14047;50.936;4.654;2024-02-15T08:16:18;15.30;99.90
26336;DHT22;14047;50.936;4.654;2024-02-15T08:18:45;15.40;99.90
26336;DHT22;14047;50.936;4.654;2024-02-15T08:21:14;15.50;99.90
26336;DHT22;14047;50.936;4.654;2024-02-15T08:23:40;15.50;99.90
26336;DHT22;14047;50.936;4.654;2024-02-15T08:26:06;15.60;99.90
26336;DHT22;14047;50.936;4.654;2024-02-15T08:28:32;15.60;99.90
26336;DHT22;14047;50.936;4.654;2024-02-15T08:30:58;15.70;99.90
26336;DHT22;14047;50.936;4.654;2024-02-15T08:33:24;15.70;99.90
26336;DHT22;14047;50.936;4.654;2024-02-15T08:35:54;15.70;99.90
26336;DHT22;14047;50.936;4.654;2024-02-15T08:38:22;15.80;99.90
26336;DHT22;14047;50.936;4.654;2024-02-15T08:40:48;15.90;99.90
26336;DHT22;14047;50.936;4.654;2024-02-15T08:43:14;15.90;99.90
26336;DHT22;14047;50.936;4.654;2024-02-15T08:45:43;16.00;99.90
26336;DHT22;14047;50.936;4.654;2024-02-15T08:48:10;16.10;99.90
26336;DHT22;14047;50.936;4.654;2024-02-15T08:50:36;16.20;99.90
26336;DHT22;14047;50.936;4.654;2024-02-15T08:53:02;16.10;99.90
26336;DHT22;14047;50.936;4.654;2024-02-15T08:55:32;16.20;99.90
26336;DHT22;14047;50.936;4.654;2024-02-15T08:57:58;16.30;99.90
26336;DHT22;14047;50.936;4.654;2024-02-15T09:00:25;16.30;99.90
26336;DHT22;14047;50.936;4.654;2024-02-15T09:02:52;16.30;99.90
26336;DHT22;14047;50.936;4.654;2024-02-15T09:05:18;16.40;99.90
26336;DHT22;14047;50.936;4.654;2024-02-15T09:07:47;16.40;99.90
26336;DHT22;14047;50.936;4.654;2024-02-15T09:10:14;16.50;99.90
26336;DHT22;14047;50.936;4.654;2024-02-15T09:12:43;16.60;99.90
26336;DHT22;14047;50.936;4.654;2024-02-15T09:15:10;16.70;99.90
26336;DHT22;14047;50.936;4.654;2024-02-15T09:17:37;16.80;99.90
26336;DHT22;14047;50.936;4.654;2024-02-15T09:20:08;16.80;99.90
26336;DHT22;14047;50.936;4.654;2024-02-15T09:22:34;16.40;99.90
26336;DHT22;14047;50.936;4.654;2024-02-15T09:25:03;16.10;99.90
26336;DHT22;14047;50.936;4.654;2024-02-15T09:27:29;16.30;99.90
26336;DHT22;14047;50.936;4.654;2024-02-15T09:29:55;16.30;99.90
26336;DHT22;14047;50.936;4.654;2024-02-15T09:32:21;16.50;99.90
26336;DHT22;14047;50.936;4.654;2024-02-15T09:34:48;16.90;99.90
26336;DHT22;14047;50.936;4.654;2024-02-15T09:37:15;17.10;99.90
26336;DHT22;14047;50.936;4.654;2024-02-15T09:39:44;17.40;99.90
26336;DHT22;14047;50.936;4.654;2024-02-15T09:42:10;17.60;99.90
26336;DHT22;14047;50.936;4.654;2024-02-15T09:44:36;17.60;99.90
26336;DHT22;14047;50.936;4.654;2024-02-15T09:47:04;17.80;99.90
26336;DHT22;14047;50.936;4.654;2024-02-15T09:49:38;17.90;99.90
26336;DHT22;14047;50.936;4.654;2024-02-15T09:52:08;17.90;99.90
26336;DHT22;14047;50.936;4.654;2024-02-15T09:54:42;18.00;99.90
26336;DHT22;14047;50.936;4.654;2024-02-15T09:57:11;18.10;99.90
26336;DHT22;14047;50.936;4.654;2024-02-15T09:59:38;18.10;99.90
26336;DHT22;14047;50.936;4.654;2024-02-15T10:02:05;18.20;99.90
26336;DHT22;14047;50.936;4.654;2024-02-15T10:04:39;18.10;99.90
26336;DHT22;14047;50.936;4.654;2024-02-15T10:07:05;18.20;99.90
26336;DHT22;14047;50.936;4.654;2024-02-15T10:09:35;18.20;99.90
26336;DHT22;14047;50.936;4.654;2024-02-15T10:12:03;18.30;99.90
26336;DHT22;14047;50.936;4.654;2024-02-15T10:14:32;18.40;99.90
26336;DHT22;14047;50.936;4.654;2024-02-15T10:17:08;18.50;99.90
26336;DHT22;14047;50.936;4.654;2024-02-15T10:19:38;18.40;99.90
26336;DHT22;14047;50.936;4.654;2024-02-15T10:22:08;18.40;99.90
26336;DHT22;14047;50.936;4.654;2024-02-15T10:24:35;18.40;99.90
26336;DHT22;14047;50.936;4.654;2024-02-15T10:27:03;18.40;99.90
26336;DHT22;14047;50.936;4.654;2024-02-15T10:29:33;18.50;99.90
26336;DHT22;14047;50.936;4.654;2024-02-15T10:32:01;18.60;99.90
26336;DHT22;14047;50.936;4.654;2024-02-15T10:34:28;18.70;99.90
26336;DHT22;14047;50.936;4.654;2024-02-15T10:36:55;18.70;99.90
26336;DHT22;14047;50.936;4.654;2024-02-15T10:39:23;18.80;99.90
26336;DHT22;14047;50.936;4.654;2024-02-15T10:41:51;18.90;99.90
26336;DHT22;14047;50.936;4.654;2024-02-15T10:44:22;19.00;99.90
26336;DHT22;14047;50.936;4.654;2024-02-15T10:46:51;19.10;99.90
26336;DHT22;14047;50.936;4.654;2024-02-15T10:49:21;19.20;99.90
26336;DHT22;14047;50.936;4.654;2024-02-15T10:51:52;19.30;99.90
26336;DHT22;14047;50.936;4.654;2024-02-15T10:57:21;19.40;99.90
26336;DHT22;14047;50.936;4.654;2024-02-15T10:59:56;19.50;99.90
26336;DHT22;14047;50.936;4.654;2024-02-15T11:02:30;19.60;99.90
26336;DHT22;14047;50.936;4.654;2024-02-15T11:05:05;19.70;99.90
26336;DHT22;14047;50.936;4.654;2024-02-15T11:07:34;19.80;99.90
26336;DHT22;14047;50.936;4.654;2024-02-15T11:10:01;19.80;99.90
26336;DHT22;14047;50.936;4.654;2024-02-15T11:12:29;19.90;99.90
26336;DHT22;14047;50.936;4.654;2024-02-15T11:14:56;19.90;99.90
26336;DHT22;14047;50.936;4.654;2024-02-15T11:23:03;19.80;99.90
26336;DHT22;14047;50.936;4.654;2024-02-15T11:25:39;19.70;99.90
26336;DHT22;14047;50.936;4.654;2024-02-15T11:30:48;19.60;99.90
26336;DHT22;14047;50.936;4.654;2024-02-15T11:33:33;19.60;99.90
26336;DHT22;14047;50.936;4.654;2024-02-15T11:36:09;19.50;99.90
26336;DHT22;14047;50.936;4.654;2024-02-15T11:38:36;19.50;99.90
26336;DHT22;14047;50.936;4.654;2024-02-15T11:41:04;19.50;99.90
26336;DHT22;14047;50.936;4.654;2024-02-15T11:46:16;19.40;99.90
26336;DHT22;14047;50.936;4.654;2024-02-15T11:48:46;19.40;99.90
26336;DHT22;14047;50.936;4.654;2024-02-15T11:51:29;19.30;99.90
26336;DHT22;14047;50.936;4.654;2024-02-15T11:54:09;19.20;99.90
26336;DHT22;14047;50.936;4.654;2024-02-15T11:56:48;19.30;99.90
26336;DHT22;14047;50.936;4.654;2024-02-15T11:59:17;19.40;99.90
26336;DHT22;14047;50.936;4.654;2024-02-15T12:01:57;19.50;99.90
26336;DHT22;14047;50.936;4.654;2024-02-15T12:04:43;19.60;99.90
26336;DHT22;14047;50.936;4.654;2024-02-15T12:07:28;19.70;99.90
26336;DHT22;14047;50.936;4.654;2024-02-15T12:10:19;19.80;99.90
26336;DHT22;14047;50.936;4.654;2024-02-15T12:13:04;20.00;99.90
26336;DHT22;14047;50.936;4.654;2024-02-15T12:15:59;20.00;99.90
26336;DHT22;14047;50.936;4.654;2024-02-15T12:18:44;20.10;99.90
26336;DHT22;14047;50.936;4.654;2024-02-15T12:21:16;20.20;99.90
26336;DHT22;14047;50.936;4.654;2024-02-15T12:23:43;20.30;99.90
26336;DHT22;14047;50.936;4.654;2024-02-15T12:26:11;20.30;99.90
26336;DHT22;14047;50.936;4.654;2024-02-15T12:28:41;20.20;99.90
26336;DHT22;14047;50.936;4.654;2024-02-15T12:31:09;20.20;99.90
26336;DHT22;14047;50.936;4.654;2024-02-15T12:33:35;20.30;99.90
26336;DHT22;14047;50.936;4.654;2024-02-15T12:36:06;20.40;99.90
26336;DHT22;14047;50.936;4.654;2024-02-15T12:38:36;20.30;99.90
26336;DHT22;14047;50.936;4.654;2024-02-15T12:41:17;20.30;99.90
26336;DHT22;14047;50.936;4.654;2024-02-15T12:43:44;20.10;99.90
26336;DHT22;14047;50.936;4.654;2024-02-15T12:46:10;20.10;99.90
26336;DHT22;14047;50.936;4.654;2024-02-15T12:48:36;19.90;99.90
26336;DHT22;14047;50.936;4.654;2024-02-15T12:51:16;19.80;99.90
26336;DHT22;14047;50.936;4.654;2024-02-15T12:53:42;19.80;99.90
26336;DHT22;14047;50.936;4.654;2024-02-15T12:56:08;19.80;99.90
26336;DHT22;14047;50.936;4.654;2024-02-15T12:58:37;19.80;99.90
26336;DHT22;14047;50.936;4.654;2024-02-15T13:01:04;19.90;99.90
26336;DHT22;14047;50.936;4.654;2024-02-15T13:03:30;20.10;99.90
26336;DHT22;14047;50.936;4.654;2024-02-15T13:05:56;20.20;99.90
26336;DHT22;14047;50.936;4.654;2024-02-15T13:08:23;20.20;99.90
26336;DHT22;14047;50.936;4.654;2024-02-15T13:10:49;20.50;99.90
26336;DHT22;14047;50.936;4.654;2024-02-15T13:13:15;20.60;99.90
26336;DHT22;14047;50.936;4.654;2024-02-15T13:15:42;20.80;99.90
26336;DHT22;14047;50.936;4.654;2024-02-15T13:18:09;20.90;99.90
26336;DHT22;14047;50.936;4.654;2024-02-15T13:20:39;20.90;99.90
26336;DHT22;14047;50.936;4.654;2024-02-15T13:23:07;21.00;99.90
26336;DHT22;14047;50.936;4.654;2024-02-15T13:25:43;21.10;99.90
26336;DHT22;14047;50.936;4.654;2024-02-15T13:28:09;21.20;99.90
26336;DHT22;14047;50.936;4.654;2024-02-15T13:30:38;20.90;99.90
26336;DHT22;14047;50.936;4.654;2024-02-15T13:33:05;21.00;99.90
26336;DHT22;14047;50.936;4.654;2024-02-15T13:35:32;21.20;99.90
26336;DHT22;14047;50.936;4.654;2024-02-15T13:37:58;21.30;99.90
26336;DHT22;14047;50.936;4.654;2024-02-15T13:40:25;21.30;99.90
26336;DHT22;14047;50.936;4.654;2024-02-15T13:42:55;21.20;99.90
26336;DHT22;14047;50.936;4.654;2024-02-15T13:45:29;21.30;99.90
26336;DHT22;14047;50.936;4.654;2024-02-15T13:47:59;20.90;99.90
26336;DHT22;14047;50.936;4.654;2024-02-15T13:50:28;21.10;99.90
26336;DHT22;14047;50.936;4.654;2024-02-15T13:52:55;21.20;99.90
26336;DHT22;14047;50.936;4.654;2024-02-15T13:55:21;21.20;99.90
26336;DHT22;14047;50.936;4.654;2024-02-15T13:57:48;21.20;99.90
26336;DHT22;14047;50.936;4.654;2024-02-15T14:00:18;21.20;99.90
26336;DHT22;14047;50.936;4.654;2024-02-15T14:02:51;21.10;99.90
26336;DHT22;14047;50.936;4.654;2024-02-15T14:05:19;21.10;99.90
26336;DHT22;14047;50.936;4.654;2024-02-15T14:07:47;21.30;99.90
26336;DHT22;14047;50.936;4.654;2024-02-15T14:10:15;21.50;99.90
26336;DHT22;14047;50.936;4.654;2024-02-15T14:12:41;21.50;99.90
26336;DHT22;14047;50.936;4.654;2024-02-15T14:15:07;21.60;99.90
26336;DHT22;14047;50.936;4.654;2024-02-15T14:17:36;21.60;99.90
26336;DHT22;14047;50.936;4.654;2024-02-15T14:20:02;21.50;99.90
26336;DHT22;14047;50.936;4.654;2024-02-15T14:22:33;21.20;99.90
26336;DHT22;14047;50.936;4.654;2024-02-15T14:24:59;21.30;99.90
26336;DHT22;14047;50.936;4.654;2024-02-15T14:27:25;21.20;99.90
26336;DHT22;14047;50.936;4.654;2024-02-15T14:29:51;21.20;99.90
26336;DHT22;14047;50.936;4.654;2024-02-15T14:32:36;21.20;99.90
26336;DHT22;14047;50.936;4.654;2024-02-15T14:35:20;21.20;99.90
26336;DHT22;14047;50.936;4.654;2024-02-15T14:37:46;21.10;99.90
26336;DHT22;14047;50.936;4.654;2024-02-15T14:40:13;20.80;99.90
26336;DHT22;14047;50.936;4.654;2024-02-15T14:42:42;20.80;99.90
26336;DHT22;14047;50.936;4.654;2024-02-15T14:45:11;20.80;99.90
26336;DHT22;14047;50.936;4.654;2024-02-15T14:47:38;20.60;99.90
26336;DHT22;14047;50.936;4.654;2024-02-15T14:50:07;20.70;99.90
26336;DHT22;14047;50.936;4.654;2024-02-15T14:52:36;20.50;99.90
26336;DHT22;14047;50.936;4.654;2024-02-15T14:55:03;20.20;99.90
26336;DHT22;14047;50.936;4.654;2024-02-15T14:57:36;20.10;99.90
26336;DHT22;14047;50.936;4.654;2024-02-15T15:00:07;20.10;99.90
26336;DHT22;14047;50.936;4.654;2024-02-15T15:02:44;20.00;99.90
26336;DHT22;14047;50.936;4.654;2024-02-15T15:05:10;19.90;99.90
26336;DHT22;14047;50.936;4.654;2024-02-15T15:07:54;19.80;99.90
26336;DHT22;14047;50.936;4.654;2024-02-15T15:10:38;19.80;99.90
26336;DHT22;14047;50.936;4.654;2024-02-15T15:13:22;19.70;99.90
26336;DHT22;14047;50.936;4.654;2024-02-15T15:15:49;19.80;99.90
26336;DHT22;14047;50.936;4.654;2024-02-15T15:18:15;19.80;99.90
26336;DHT22;14047;50.936;4.654;2024-02-15T15:20:41;19.90;99.90
26336;DHT22;14047;50.936;4.654;2024-02-15T15:23:10;19.80;99.90
26336;DHT22;14047;50.936;4.654;2024-02-15T15:25:36;19.80;99.90
26336;DHT22;14047;50.936;4.654;2024-02-15T15:28:05;19.50;99.90
26336;DHT22;14047;50.936;4.654;2024-02-15T15:30:31;19.50;99.90
26336;DHT22;14047;50.936;4.654;2024-02-15T15:32:57;19.50;99.90
26336;DHT22;14047;50.936;4.654;2024-02-15T15:35:25;19.50;99.90
26336;DHT22;14047;50.936;4.654;2024-02-15T15:37:53;19.50;99.90
26336;DHT22;14047;50.936;4.654;2024-02-15T15:40:19;19.50;99.90
26336;DHT22;14047;50.936;4.654;2024-02-15T15:42:45;19.50;99.90
26336;DHT22;14047;50.936;4.654;2024-02-15T15:45:11;19.60;99.90
26336;DHT22;14047;50.936;4.654;2024-02-15T15:47:38;19.60;99.90
26336;DHT22;14047;50.936;4.654;2024-02-15T15:50:08;19.60;99.90
26336;DHT22;14047;50.936;4.654;2024-02-15T15:52:34;19.50;99.90